sensor_id;sensor_type;location;lat;lon;timestamp;pressure;altitude;pressure_sealevel;temperature;humidity
20013;BME280;10167;42.852;23.042;2022-12-18T00:00:41;95663.50;;;5.65;100.00
20013;BME280;10167;42.852;23.042;2022-12-18T00:03:11;95669.06;;;5.56;100.00
20013;BME280;10167;42.852;23.042;2022-12-18T00:05:48;95670.97;;;5.62;100.00
20013;BME280;10167;42.852;23.042;2022-12-18T00:08:18;95677.22;;;5.61;100.00
20013;BME280;10167;42.852;23.042;2022-12-18T00:10:47;95677.97;;;5.55;100.00
20013;BME280;10167;42.852;23.042;2022-12-18T00:13:18;95676.31;;;5.54;100.00
20013;BME280;10167;42.852;23.042;2022-12-18T00:15:47;95682.53;;;5.67;100.00
20013;BME280;10167;42.852;23.042;2022-12-18T00:18:17;95691.88;;;5.70;100.00
20013;BME280;10167;42.852;23.042;2022-12-18T00:20:48;95697.78;;;5.57;100.00
20013;BME280;10167;42.852;23.042;2022-12-18T00:23:19;95701.34;;;5.50;100.00
20013;BME280;10167;42.852;23.042;2022-12-18T00:25:48;95706.09;;;5.39;100.00
20013;BME280;10167;42.852;23.042;2022-12-18T00:28:17;95710.72;;;5.37;100.00
20013;BME280;10167;42.852;23.042;2022-12-18T00:30:46;95709.72;;;5.38;100.00
20013;BME280;10167;42.852;23.042;2022-12-18T00:33:18;95714.97;;;5.38;100.00
20013;BME280;10167;42.852;23.042;2022-12-18T00:35:49;95713.78;;;5.41;100.00
20013;BME280;10167;42.852;23.042;2022-12-18T00:38:19;95698.53;;;5.15;100.00
20013;BME280;10167;42.852;23.042;2022-12-18T00:40:49;95718.91;;;5.13;100.00
20013;BME280;10167;42.852;23.042;2022-12-18T00:43:19;95717.91;;;5.14;100.00
20013;BME280;10167;42.852;23.042;2022-12-18T00:45:47;95717.50;;;5.32;100.00
20013;BME280;10167;42.852;23.042;2022-12-18T00:48:16;95723.50;;;5.26;100.00
20013;BME280;10167;42.852;23.042;2022-12-18T00:50:49;95721.59;;;5.20;100.00
20013;BME280;10167;42.852;23.042;2022-12-18T00:53:19;95733.72;;;5.35;100.00
20013;BME280;10167;42.852;23.042;2022-12-18T00:55:48;95735.34;;;5.22;100.00
20013;BME280;10167;42.852;23.042;2022-12-18T00:58:18;95733.66;;;5.29;100.00
20013;BME280;10167;42.852;23.042;2022-12-18T01:00:47;95739.06;;;5.27;100.00
20013;BME280;10167;42.852;23.042;2022-12-18T01:03:16;95740.06;;;5.26;100.00
20013;BME280;10167;42.852;23.042;2022-12-18T01:05:46;95749.22;;;5.30;100.00
20013;BME280;10167;42.852;23.042;2022-12-18T01:08:20;95734.81;;;5.26;100.00
20013;BME280;10167;42.852;23.042;2022-12-18T01:10:50;95750.00;;;5.31;100.00
20013;BME280;10167;42.852;23.042;2022-12-18T01:13:20;95743.50;;;5.27;100.00
20013;BME280;10167;42.852;23.042;2022-12-18T01:15:51;95749.47;;;5.35;100.00
20013;BME280;10167;42.852;23.042;2022-12-18T01:18:23;95748.13;;;5.25;100.00
20013;BME280;10167;42.852;23.042;2022-12-18T01:20:53;95746.97;;;5.27;100.00
20013;BME280;10167;42.852;23.042;2022-12-18T01:23:24;95749.56;;;4.98;100.00
20013;BME280;10167;42.852;23.042;2022-12-18T01:25:53;95750.22;;;5.15;100.00
20013;BME280;10167;42.852;23.042;2022-12-18T01:28:23;95758.44;;;5.11;100.00
20013;BME280;10167;42.852;23.042;2022-12-18T01:30:53;95753.03;;;5.13;100.00
20013;BME280;10167;42.852;23.042;2022-12-18T01:33:22;95744.59;;;4.88;100.00
20013;BME280;10167;42.852;23.042;2022-12-18T01:35:51;95748.31;;;5.08;100.00
20013;BME280;10167;42.852;23.042;2022-12-18T01:38:20;95752.66;;;5.16;100.00
20013;BME280;10167;42.852;23.042;2022-12-18T01:40:57;95758.91;;;5.15;100.00
20013;BME280;10167;42.852;23.042;2022-12-18T01:43:46;95755.81;;;5.11;100.00
20013;BME280;10167;42.852;23.042;2022-12-18T01:46:18;95756.56;;;5.05;100.00
20013;BME280;10167;42.852;23.042;2022-12-18T01:48:50;95766.25;;;5.05;100.00
20013;BME280;10167;42.852;23.042;2022-12-18T01:51:21;95757.28;;;4.85;100.00
20013;BME280;10167;42.852;23.042;2022-12-18T01:53:50;95771.56;;;4.82;100.00
20013;BME280;10167;42.852;23.042;2022-12-18T01:56:22;95771.03;;;4.87;100.00
20013;BME280;10167;42.852;23.042;2022-12-18T01:58:58;95779.28;;;4.84;100.00
20013;BME280;10167;42.852;23.042;2022-12-18T02:01:30;95773.38;;;4.82;100.00
20013;BME280;10167;42.852;23.042;2022-12-18T02:04:20;95776.81;;;4.82;100.00
20013;BME280;10167;42.852;23.042;2022-12-18T02:06:52;95777.91;;;4.73;100.00
20013;BME280;10167;42.852;23.042;2022-12-18T02:09:28;95779.50;;;4.74;100.00
20013;BME280;10167;42.852;23.042;2022-12-18T02:12:07;95784.13;;;4.87;100.00
20013;BME280;10167;42.852;23.042;2022-12-18T02:14:44;95784.97;;;4.72;100.00
20013;BME280;10167;42.852;23.042;2022-12-18T02:17:21;95782.44;;;4.79;100.00
20013;BME280;10167;42.852;23.042;2022-12-18T02:19:58;95784.59;;;4.75;100.00
20013;BME280;10167;42.852;23.042;2022-12-18T02:22:39;95797.09;;;4.73;100.00
20013;BME280;10167;42.852;23.042;2022-12-18T02:25:23;95789.91;;;4.67;100.00
20013;BME280;10167;42.852;23.042;2022-12-18T02:27:59;95783.59;;;4.77;100.00
20013;BME280;10167;42.852;23.042;2022-12-18T02:30:31;95787.63;;;4.64;100.00
20013;BME280;10167;42.852;23.042;2022-12-18T02:33:04;95799.84;;;4.57;100.00
20013;BME280;10167;42.852;23.042;2022-12-18T02:35:36;95795.69;;;4.63;100.00
20013;BME280;10167;42.852;23.042;2022-12-18T02:38:08;95796.88;;;4.60;100.00
20013;BME280;10167;42.852;23.042;2022-12-18T02:40:41;95788.19;;;4.60;100.00
20013;BME280;10167;42.852;23.042;2022-12-18T02:43:15;95786.97;;;4.48;100.00
20013;BME280;10167;42.852;23.042;2022-12-18T02:45:47;95793.69;;;4.50;100.00
20013;BME280;10167;42.852;23.042;2022-12-18T02:48:19;95803.81;;;4.53;100.00
20013;BME280;10167;42.852;23.042;2022-12-18T02:50:52;95787.78;;;4.48;100.00
20013;BME280;10167;42.852;23.042;2022-12-18T02:53:28;95795.53;;;4.42;100.00
20013;BME280;10167;42.852;23.042;2022-12-18T02:56:06;95799.78;;;4.43;100.00
20013;BME280;10167;42.852;23.042;2022-12-18T02:58:45;95801.03;;;4.32;100.00
20013;BME280;10167;42.852;23.042;2022-12-18T03:01:34;95801.16;;;4.38;100.00
20013;BME280;10167;42.852;23.042;2022-12-18T03:04:07;95796.66;;;4.24;100.00
20013;BME280;10167;42.852;23.042;2022-12-18T03:06:44;95798.97;;;4.19;100.00
20013;BME280;10167;42.852;23.042;2022-12-18T03:09:20;95802.19;;;4.29;100.00
20013;BME280;10167;42.852;23.042;2022-12-18T03:11:54;95790.53;;;4.09;100.00
20013;BME280;10167;42.852;23.042;2022-12-18T03:14:45;95809.88;;;4.08;100.00
20013;BME280;10167;42.852;23.042;2022-12-18T03:17:19;95792.41;;;4.00;100.00
20013;BME280;10167;42.852;23.042;2022-12-18T03:19:53;95800.09;;;4.02;100.00
20013;BME280;10167;42.852;23.042;2022-12-18T03:22:27;95814.66;;;4.05;100.00
20013;BME280;10167;42.852;23.042;2022-12-18T03:25:01;95811.66;;;3.85;100.00
20013;BME280;10167;42.852;23.042;2022-12-18T03:27:33;95808.44;;;3.75;100.00
20013;BME280;10167;42.852;23.042;2022-12-18T03:30:12;95831.47;;;3.87;100.00
20013;BME280;10167;42.852;23.042;2022-12-18T03:32:47;95831.13;;;3.90;100.00
20013;BME280;10167;42.852;23.042;2022-12-18T03:35:27;95827.19;;;3.94;100.00
20013;BME280;10167;42.852;23.042;2022-12-18T03:37:57;95828.84;;;3.87;100.00
20013;BME280;10167;42.852;23.042;2022-12-18T03:40:39;95829.06;;;3.78;100.00
20013;BME280;10167;42.852;23.042;2022-12-18T03:43:16;95836.44;;;3.74;100.00
20013;BME280;10167;42.852;23.042;2022-12-18T03:45:53;95846.59;;;3.77;100.00
20013;BME280;10167;42.852;23.042;2022-12-18T03:48:28;95845.47;;;3.72;100.00
20013;BME280;10167;42.852;23.042;2022-12-18T03:51:07;95853.63;;;3.77;100.00
20013;BME280;10167;42.852;23.042;2022-12-18T03:53:44;95855.47;;;3.68;100.00
20013;BME280;10167;42.852;23.042;2022-12-18T03:56:18;95861.66;;;3.75;100.00
20013;BME280;10167;42.852;23.042;2022-12-18T03:58:50;95868.78;;;3.89;100.00
20013;BME280;10167;42.852;23.042;2022-12-18T04:01:31;95861.00;;;3.73;100.00
20013;BME280;10167;42.852;23.042;2022-12-18T04:04:03;95875.34;;;3.85;100.00
20013;BME280;10167;42.852;23.042;2022-12-18T04:06:39;95867.31;;;3.87;100.00
20013;BME280;10167;42.852;23.042;2022-12-18T04:09:12;95873.47;;;3.71;100.00
20013;BME280;10167;42.852;23.042;2022-12-18T04:11:46;95879.81;;;3.77;100.00
20013;BME280;10167;42.852;23.042;2022-12-18T04:14:16;95879.97;;;3.75;100.00
20013;BME280;10167;42.852;23.042;2022-12-18T04:16:50;95887.63;;;3.85;100.00
20013;BME280;10167;42.852;23.042;2022-12-18T04:19:26;95884.84;;;3.86;100.00
20013;BME280;10167;42.852;23.042;2022-12-18T04:21:55;95890.63;;;3.82;100.00
20013;BME280;10167;42.852;23.042;2022-12-18T04:24:25;95901.59;;;3.77;100.00
20013;BME280;10167;42.852;23.042;2022-12-18T04:27:07;95900.44;;;3.80;100.00
20013;BME280;10167;42.852;23.042;2022-12-18T04:29:43;95898.31;;;3.75;100.00
20013;BME280;10167;42.852;23.042;2022-12-18T04:32:16;95903.22;;;3.78;100.00
20013;BME280;10167;42.852;23.042;2022-12-18T04:34:47;95900.28;;;3.73;100.00
20013;BME280;10167;42.852;23.042;2022-12-18T04:37:17;95915.56;;;3.70;100.00
20013;BME280;10167;42.852;23.042;2022-12-18T04:39:49;95917.31;;;3.77;100.00
20013;BME280;10167;42.852;23.042;2022-12-18T04:42:26;95920.63;;;3.71;100.00
20013;BME280;10167;42.852;23.042;2022-12-18T04:44:55;95935.19;;;3.65;100.00
20013;BME280;10167;42.852;23.042;2022-12-18T04:47:26;95932.75;;;3.64;100.00
20013;BME280;10167;42.852;23.042;2022-12-18T04:49:55;95933.84;;;3.78;100.00
20013;BME280;10167;42.852;23.042;2022-12-18T04:52:24;95934.72;;;3.62;100.00
20013;BME280;10167;42.852;23.042;2022-12-18T04:54:53;95932.59;;;3.57;100.00
20013;BME280;10167;42.852;23.042;2022-12-18T04:57:23;95943.25;;;3.56;100.00
20013;BME280;10167;42.852;23.042;2022-12-18T04:59:53;95948.16;;;3.59;100.00
20013;BME280;10167;42.852;23.042;2022-12-18T05:02:22;95957.47;;;3.53;100.00
20013;BME280;10167;42.852;23.042;2022-12-18T05:04:53;95957.66;;;3.52;100.00
20013;BME280;10167;42.852;23.042;2022-12-18T05:07:23;95960.06;;;3.61;100.00
20013;BME280;10167;42.852;23.042;2022-12-18T05:09:51;95967.16;;;3.61;100.00
20013;BME280;10167;42.852;23.042;2022-12-18T05:12:21;95976.97;;;3.59;100.00
20013;BME280;10167;42.852;23.042;2022-12-18T05:14:50;95977.94;;;3.66;100.00
20013;BME280;10167;42.852;23.042;2022-12-18T05:17:19;95975.31;;;3.58;100.00
20013;BME280;10167;42.852;23.042;2022-12-18T05:19:49;95972.03;;;3.72;100.00
20013;BME280;10167;42.852;23.042;2022-12-18T05:22:19;95980.72;;;3.64;100.00
20013;BME280;10167;42.852;23.042;2022-12-18T05:24:48;95974.84;;;3.54;100.00
20013;BME280;10167;42.852;23.042;2022-12-18T05:27:18;95981.56;;;3.49;100.00
20013;BME280;10167;42.852;23.042;2022-12-18T05:29:48;95982.06;;;3.36;100.00
20013;BME280;10167;42.852;23.042;2022-12-18T05:32:17;95986.34;;;3.37;100.00
20013;BME280;10167;42.852;23.042;2022-12-18T05:34:46;95995.97;;;3.45;100.00
20013;BME280;10167;42.852;23.042;2022-12-18T05:37:16;95998.94;;;3.34;100.00
20013;BME280;10167;42.852;23.042;2022-12-18T05:39:47;96004.78;;;3.52;100.00
20013;BME280;10167;42.852;23.042;2022-12-18T05:42:16;96004.97;;;3.34;100.00
20013;BME280;10167;42.852;23.042;2022-12-18T05:44:46;96011.69;;;3.45;100.00
20013;BME280;10167;42.852;23.042;2022-12-18T05:47:15;96013.00;;;3.49;100.00
20013;BME280;10167;42.852;23.042;2022-12-18T05:49:45;96011.50;;;3.54;100.00
20013;BME280;10167;42.852;23.042;2022-12-18T05:52:14;96016.59;;;3.48;100.00
20013;BME280;10167;42.852;23.042;2022-12-18T05:54:43;96024.28;;;3.49;100.00
20013;BME280;10167;42.852;23.042;2022-12-18T05:57:14;96022.16;;;3.45;100.00
20013;BME280;10167;42.852;23.042;2022-12-18T05:59:43;96019.84;;;3.58;100.00
20013;BME280;10167;42.852;23.042;2022-12-18T06:02:12;96026.41;;;3.46;100.00
20013;BME280;10167;42.852;23.042;2022-12-18T06:04:42;96021.81;;;3.40;100.00
20013;BME280;10167;42.852;23.042;2022-12-18T06:07:11;96038.34;;;3.40;100.00
20013;BME280;10167;42.852;23.042;2022-12-18T06:09:41;96034.91;;;3.40;100.00
20013;BME280;10167;42.852;23.042;2022-12-18T06:12:09;96034.91;;;3.40;100.00
20013;BME280;10167;42.852;23.042;2022-12-18T06:14:40;96051.28;;;3.25;100.00
20013;BME280;10167;42.852;23.042;2022-12-18T06:17:09;96037.53;;;3.32;100.00
20013;BME280;10167;42.852;23.042;2022-12-18T06:19:38;96041.97;;;3.47;100.00
20013;BME280;10167;42.852;23.042;2022-12-18T06:22:08;96049.50;;;3.26;100.00
20013;BME280;10167;42.852;23.042;2022-12-18T06:24:37;96056.66;;;3.40;100.00
20013;BME280;10167;42.852;23.042;2022-12-18T06:27:07;96061.59;;;3.43;100.00
20013;BME280;10167;42.852;23.042;2022-12-18T06:29:36;96075.84;;;3.49;100.00
20013;BME280;10167;42.852;23.042;2022-12-18T06:32:06;96061.78;;;3.50;100.00
20013;BME280;10167;42.852;23.042;2022-12-18T06:34:37;96076.97;;;3.62;100.00
20013;BME280;10167;42.852;23.042;2022-12-18T06:37:06;96084.00;;;3.70;100.00
20013;BME280;10167;42.852;23.042;2022-12-18T06:39:35;96097.25;;;3.52;100.00
20013;BME280;10167;42.852;23.042;2022-12-18T06:42:05;96091.38;;;3.50;100.00
20013;BME280;10167;42.852;23.042;2022-12-18T06:44:34;96097.09;;;3.46;100.00
20013;BME280;10167;42.852;23.042;2022-12-18T06:47:03;96100.53;;;3.54;100.00
20013;BME280;10167;42.852;23.042;2022-12-18T06:49:34;96103.97;;;3.39;100.00
20013;BME280;10167;42.852;23.042;2022-12-18T06:52:04;96105.28;;;3.51;100.00
20013;BME280;10167;42.852;23.042;2022-12-18T06:54:34;96087.78;;;3.43;100.00
20013;BME280;10167;42.852;23.042;2022-12-18T06:57:03;96108.06;;;3.41;100.00
20013;BME280;10167;42.852;23.042;2022-12-18T06:59:34;96101.03;;;3.42;100.00
20013;BME280;10167;42.852;23.042;2022-12-18T07:02:03;96099.69;;;3.29;100.00
20013;BME280;10167;42.852;23.042;2022-12-18T07:04:34;96113.28;;;3.41;100.00
20013;BME280;10167;42.852;23.042;2022-12-18T07:07:03;96101.19;;;3.40;100.00
20013;BME280;10167;42.852;23.042;2022-12-18T07:09:33;96117.06;;;3.55;100.00
20013;BME280;10167;42.852;23.042;2022-12-18T07:12:03;96120.16;;;3.42;100.00
20013;BME280;10167;42.852;23.042;2022-12-18T07:14:32;96123.28;;;3.38;100.00
20013;BME280;10167;42.852;23.042;2022-12-18T07:17:02;96126.56;;;3.48;100.00
20013;BME280;10167;42.852;23.042;2022-12-18T07:19:34;96127.56;;;3.55;100.00
20013;BME280;10167;42.852;23.042;2022-12-18T07:22:05;96122.78;;;3.50;100.00
20013;BME280;10167;42.852;23.042;2022-12-18T07:24:34;96126.56;;;3.56;100.00
20013;BME280;10167;42.852;23.042;2022-12-18T07:27:03;96127.38;;;3.40;100.00
20013;BME280;10167;42.852;23.042;2022-12-18T07:29:34;96117.03;;;3.39;100.00
20013;BME280;10167;42.852;23.042;2022-12-18T07:32:04;96133.75;;;3.46;100.00
20013;BME280;10167;42.852;23.042;2022-12-18T07:34:37;96124.94;;;3.47;100.00
20013;BME280;10167;42.852;23.042;2022-12-18T07:37:06;96141.63;;;3.46;100.00
20013;BME280;10167;42.852;23.042;2022-12-18T07:39:36;96145.69;;;3.40;100.00
20013;BME280;10167;42.852;23.042;2022-12-18T07:42:07;96139.47;;;3.41;100.00
20013;BME280;10167;42.852;23.042;2022-12-18T07:44:54;96137.38;;;3.37;100.00
20013;BME280;10167;42.852;23.042;2022-12-18T07:47:23;96146.50;;;3.41;100.00
20013;BME280;10167;42.852;23.042;2022-12-18T07:49:54;96149.00;;;3.58;100.00
20013;BME280;10167;42.852;23.042;2022-12-18T07:52:28;96139.00;;;3.46;100.00
20013;BME280;10167;42.852;23.042;2022-12-18T07:54:57;96139.16;;;3.52;100.00
20013;BME280;10167;42.852;23.042;2022-12-18T07:57:27;96140.97;;;3.52;100.00
20013;BME280;10167;42.852;23.042;2022-12-18T08:00:17;96146.03;;;3.61;100.00
20013;BME280;10167;42.852;23.042;2022-12-18T08:02:47;96138.84;;;3.55;100.00
20013;BME280;10167;42.852;23.042;2022-12-18T08:05:18;96151.94;;;3.63;100.00
20013;BME280;10167;42.852;23.042;2022-12-18T08:07:48;96148.66;;;3.61;100.00
20013;BME280;10167;42.852;23.042;2022-12-18T08:10:17;96164.38;;;3.61;100.00
20013;BME280;10167;42.852;23.042;2022-12-18T08:12:49;96172.56;;;3.67;100.00
20013;BME280;10167;42.852;23.042;2022-12-18T08:15:18;96195.31;;;3.74;100.00
20013;BME280;10167;42.852;23.042;2022-12-18T08:17:48;96183.06;;;3.83;100.00
20013;BME280;10167;42.852;23.042;2022-12-18T08:20:20;96199.63;;;3.83;100.00
20013;BME280;10167;42.852;23.042;2022-12-18T08:22:50;96188.75;;;3.62;100.00
20013;BME280;10167;42.852;23.042;2022-12-18T08:25:20;96203.19;;;3.66;100.00
20013;BME280;10167;42.852;23.042;2022-12-18T08:27:49;96197.63;;;3.69;100.00
20013;BME280;10167;42.852;23.042;2022-12-18T08:30:19;96192.56;;;3.68;100.00
20013;BME280;10167;42.852;23.042;2022-12-18T08:32:51;96186.69;;;3.82;100.00
20013;BME280;10167;42.852;23.042;2022-12-18T08:35:23;96196.84;;;3.93;100.00
20013;BME280;10167;42.852;23.042;2022-12-18T08:37:57;96198.63;;;4.00;100.00
20013;BME280;10167;42.852;23.042;2022-12-18T08:40:26;96208.78;;;4.04;100.00
20013;BME280;10167;42.852;23.042;2022-12-18T08:42:55;96208.59;;;3.97;100.00
20013;BME280;10167;42.852;23.042;2022-12-18T08:45:41;96210.41;;;3.96;100.00
20013;BME280;10167;42.852;23.042;2022-12-18T08:48:11;96207.78;;;3.96;100.00
20013;BME280;10167;42.852;23.042;2022-12-18T08:50:55;96210.09;;;3.99;100.00
20013;BME280;10167;42.852;23.042;2022-12-18T08:53:25;96204.84;;;3.99;100.00
20013;BME280;10167;42.852;23.042;2022-12-18T08:56:01;96202.06;;;4.01;100.00
20013;BME280;10167;42.852;23.042;2022-12-18T08:58:30;96208.63;;;4.05;100.00
20013;BME280;10167;42.852;23.042;2022-12-18T09:01:00;96204.03;;;3.99;100.00
20013;BME280;10167;42.852;23.042;2022-12-18T09:03:31;96200.25;;;4.10;100.00
20013;BME280;10167;42.852;23.042;2022-12-18T09:06:03;96200.59;;;4.15;100.00
20013;BME280;10167;42.852;23.042;2022-12-18T09:08:32;96188.28;;;4.31;100.00
20013;BME280;10167;42.852;23.042;2022-12-18T09:11:02;96192.06;;;4.37;100.00
20013;BME280;10167;42.852;23.042;2022-12-18T09:13:31;96198.28;;;4.28;100.00
20013;BME280;10167;42.852;23.042;2022-12-18T09:16:03;96198.09;;;4.29;100.00
20013;BME280;10167;42.852;23.042;2022-12-18T09:18:33;96205.97;;;4.37;100.00
20013;BME280;10167;42.852;23.042;2022-12-18T09:21:10;96197.44;;;4.44;100.00
20013;BME280;10167;42.852;23.042;2022-12-18T09:23:39;96208.94;;;4.34;100.00
20013;BME280;10167;42.852;23.042;2022-12-18T09:26:08;96204.53;;;4.27;100.00
20013;BME280;10167;42.852;23.042;2022-12-18T09:28:38;96220.72;;;4.30;100.00
20013;BME280;10167;42.852;23.042;2022-12-18T09:31:10;96209.75;;;4.27;100.00
20013;BME280;10167;42.852;23.042;2022-12-18T09:33:44;96214.31;;;4.49;100.00
20013;BME280;10167;42.852;23.042;2022-12-18T09:36:16;96214.31;;;4.49;100.00
20013;BME280;10167;42.852;23.042;2022-12-18T09:38:48;96219.53;;;4.65;100.00
20013;BME280;10167;42.852;23.042;2022-12-18T09:41:32;96219.19;;;4.68;100.00
20013;BME280;10167;42.852;23.042;2022-12-18T09:44:11;96209.66;;;4.84;100.00
20013;BME280;10167;42.852;23.042;2022-12-18T09:46:46;96202.09;;;4.81;100.00
20013;BME280;10167;42.852;23.042;2022-12-18T09:49:18;96210.81;;;4.81;100.00
20013;BME280;10167;42.852;23.042;2022-12-18T09:51:55;96206.16;;;4.91;100.00
20013;BME280;10167;42.852;23.042;2022-12-18T09:54:29;96213.56;;;4.96;100.00
20013;BME280;10167;42.852;23.042;2022-12-18T09:57:02;96219.78;;;4.95;100.00
20013;BME280;10167;42.852;23.042;2022-12-18T09:59:35;96208.66;;;4.77;100.00
20013;BME280;10167;42.852;23.042;2022-12-18T10:02:14;96210.63;;;4.74;100.00
20013;BME280;10167;42.852;23.042;2022-12-18T10:04:48;96205.13;;;4.53;100.00
20013;BME280;10167;42.852;23.042;2022-12-18T10:07:28;96201.22;;;4.49;100.00
20013;BME280;10167;42.852;23.042;2022-12-18T10:10:06;96205.94;;;4.54;100.00
20013;BME280;10167;42.852;23.042;2022-12-18T10:12:44;96194.31;;;4.56;100.00
20013;BME280;10167;42.852;23.042;2022-12-18T10:15:24;96192.97;;;4.52;100.00
20013;BME280;10167;42.852;23.042;2022-12-18T10:18:02;96190.91;;;4.40;100.00
20013;BME280;10167;42.852;23.042;2022-12-18T10:20:37;96187.94;;;4.43;100.00
20013;BME280;10167;42.852;23.042;2022-12-18T10:23:14;96196.09;;;4.56;100.00
20013;BME280;10167;42.852;23.042;2022-12-18T10:25:53;96195.13;;;4.41;100.00
20013;BME280;10167;42.852;23.042;2022-12-18T10:28:25;96198.88;;;4.54;100.00
20013;BME280;10167;42.852;23.042;2022-12-18T10:30:55;96193.00;;;4.60;100.00
20013;BME280;10167;42.852;23.042;2022-12-18T10:33:29;96193.78;;;4.69;100.00
20013;BME280;10167;42.852;23.042;2022-12-18T10:35:59;96201.94;;;4.82;100.00
20013;BME280;10167;42.852;23.042;2022-12-18T10:38:31;96199.59;;;4.95;100.00
20013;BME280;10167;42.852;23.042;2022-12-18T10:41:02;96201.88;;;5.06;100.00
20013;BME280;10167;42.852;23.042;2022-12-18T10:43:35;96206.03;;;5.24;100.00
20013;BME280;10167;42.852;23.042;2022-12-18T10:46:16;96206.47;;;5.35;100.00
20013;BME280;10167;42.852;23.042;2022-12-18T10:48:53;96206.59;;;5.42;100.00
20013;BME280;10167;42.852;23.042;2022-12-18T10:51:26;96202.78;;;5.53;100.00
20013;BME280;10167;42.852;23.042;2022-12-18T10:54:02;96197.53;;;5.53;100.00
20013;BME280;10167;42.852;23.042;2022-12-18T10:56:35;96194.19;;;5.59;100.00
20013;BME280;10167;42.852;23.042;2022-12-18T10:59:07;96196.88;;;5.51;100.00
20013;BME280;10167;42.852;23.042;2022-12-18T11:01:48;96200.22;;;5.67;100.00
20013;BME280;10167;42.852;23.042;2022-12-18T11:04:21;96196.09;;;5.73;100.00
20013;BME280;10167;42.852;23.042;2022-12-18T11:06:54;96190.44;;;5.76;100.00
20013;BME280;10167;42.852;23.042;2022-12-18T11:09:26;96193.34;;;5.89;100.00
20013;BME280;10167;42.852;23.042;2022-12-18T11:11:57;96197.75;;;5.97;100.00
20013;BME280;10167;42.852;23.042;2022-12-18T11:14:29;96198.59;;;6.12;100.00
20013;BME280;10167;42.852;23.042;2022-12-18T11:17:00;96206.88;;;6.24;100.00
20013;BME280;10167;42.852;23.042;2022-12-18T11:19:53;96206.47;;;6.35;100.00
20013;BME280;10167;42.852;23.042;2022-12-18T11:22:25;96204.25;;;6.24;100.00
20013;BME280;10167;42.852;23.042;2022-12-18T11:24:59;96210.53;;;6.00;100.00
20013;BME280;10167;42.852;23.042;2022-12-18T11:27:52;96205.44;;;5.98;100.00
20013;BME280;10167;42.852;23.042;2022-12-18T11:30:23;96211.47;;;6.07;100.00
20013;BME280;10167;42.852;23.042;2022-12-18T11:32:59;96209.94;;;6.12;100.00
20013;BME280;10167;42.852;23.042;2022-12-18T11:35:44;96208.00;;;6.29;100.00
20013;BME280;10167;42.852;23.042;2022-12-18T11:38:20;96205.53;;;6.28;100.00
20013;BME280;10167;42.852;23.042;2022-12-18T11:40:56;96204.63;;;6.21;100.00
20013;BME280;10167;42.852;23.042;2022-12-18T11:43:29;96210.72;;;6.36;100.00
20013;BME280;10167;42.852;23.042;2022-12-18T11:46:05;96210.38;;;6.39;100.00
20013;BME280;10167;42.852;23.042;2022-12-18T11:48:45;96211.94;;;6.48;100.00
20013;BME280;10167;42.852;23.042;2022-12-18T11:51:26;96213.09;;;6.31;100.00
20013;BME280;10167;42.852;23.042;2022-12-18T11:53:58;96205.63;;;6.19;100.00
20013;BME280;10167;42.852;23.042;2022-12-18T11:56:33;96203.28;;;6.02;100.00
20013;BME280;10167;42.852;23.042;2022-12-18T11:59:12;96204.66;;;5.98;100.00
20013;BME280;10167;42.852;23.042;2022-12-18T12:01:49;96203.00;;;5.97;100.00
20013;BME280;10167;42.852;23.042;2022-12-18T12:04:34;96195.00;;;5.90;100.00
20013;BME280;10167;42.852;23.042;2022-12-18T12:07:17;96198.66;;;5.81;100.00
20013;BME280;10167;42.852;23.042;2022-12-18T12:10:00;96201.94;;;5.83;100.00
20013;BME280;10167;42.852;23.042;2022-12-18T12:12:43;96202.25;;;5.80;100.00
20013;BME280;10167;42.852;23.042;2022-12-18T12:15:26;96206.59;;;5.73;100.00
20013;BME280;10167;42.852;23.042;2022-12-18T12:18:05;96209.78;;;5.60;100.00
20013;BME280;10167;42.852;23.042;2022-12-18T12:20:49;96207.03;;;5.76;100.00
20013;BME280;10167;42.852;23.042;2022-12-18T12:23:28;96212.38;;;5.68;100.00
20013;BME280;10167;42.852;23.042;2022-12-18T12:26:04;96207.28;;;5.67;100.00
20013;BME280;10167;42.852;23.042;2022-12-18T12:28:57;96207.09;;;5.68;100.00
20013;BME280;10167;42.852;23.042;2022-12-18T12:31:42;96210.22;;;5.72;100.00
20013;BME280;10167;42.852;23.042;2022-12-18T12:34:19;96215.69;;;5.62;100.00
20013;BME280;10167;42.852;23.042;2022-12-18T12:37:01;96209.47;;;5.55;100.00
20013;BME280;10167;42.852;23.042;2022-12-18T12:39:37;96212.53;;;5.67;100.00
20013;BME280;10167;42.852;23.042;2022-12-18T12:42:22;96209.13;;;5.58;100.00
20013;BME280;10167;42.852;23.042;2022-12-18T12:45:18;96210.69;;;5.44;100.00
20013;BME280;10167;42.852;23.042;2022-12-18T12:47:51;96204.66;;;5.36;100.00
20013;BME280;10167;42.852;23.042;2022-12-18T12:50:23;96220.84;;;5.47;100.00
20013;BME280;10167;42.852;23.042;2022-12-18T12:52:55;96213.53;;;5.35;100.00
20013;BME280;10167;42.852;23.042;2022-12-18T12:55:28;96208.66;;;5.55;100.00
20013;BME280;10167;42.852;23.042;2022-12-18T12:58:05;96208.44;;;5.41;100.00
20013;BME280;10167;42.852;23.042;2022-12-18T13:00:41;96212.66;;;5.42;100.00
20013;BME280;10167;42.852;23.042;2022-12-18T13:03:21;96213.84;;;5.40;100.00
20013;BME280;10167;42.852;23.042;2022-12-18T13:05:54;96212.22;;;5.39;100.00
20013;BME280;10167;42.852;23.042;2022-12-18T13:08:27;96221.13;;;5.30;100.00
20013;BME280;10167;42.852;23.042;2022-12-18T13:11:30;96217.25;;;5.18;100.00
20013;BME280;10167;42.852;23.042;2022-12-18T13:14:31;96225.44;;;5.15;100.00
20013;BME280;10167;42.852;23.042;2022-12-18T13:17:27;96222.03;;;5.06;100.00
20013;BME280;10167;42.852;23.042;2022-12-18T13:20:09;96232.84;;;5.11;100.00
20013;BME280;10167;42.852;23.042;2022-12-18T13:22:43;96229.22;;;5.12;100.00